Time;durP1;ratioP1;P1;durP2;ratioP2;P2;SDS_P1;SDS_P2;PMS_P1;PMS_P2;Temp;Humidity;BMP_temperature;BMP_pressure;BME280_temperature;BME280_humidity;BME280_pressure;Samples;Min_cycle;Max_cycle;Signal;HPM_P1;HPM_P2
2021/01/04 00:01:44;;;;;;;13.82;10.30;;;2.00;99.90;;;;;;5053917;28;20179;-75
2021/01/04 00:04:28;;;;;;;12.48;10.25;;;1.80;99.90;;;;;;5051795;28;20256;-75
2021/01/04 00:07:26;;;;;;;13.30;9.75;;;2.00;99.90;;;;;;5052162;28;20179;-74
2021/01/04 00:10:21;;;;;;;12.85;10.30;;;1.90;99.90;;;;;;5050353;28;20188;-74
2021/01/04 00:12:58;;;;;;;11.90;9.68;;;1.90;99.90;;;;;;5053330;28;20658;-75
2021/01/04 00:15:42;;;;;;;14.93;10.90;;;1.90;99.90;;;;;;5053894;28;20250;-74
2021/01/04 00:18:36;;;;;;;13.02;9.65;;;1.90;99.90;;;;;;5053911;28;20725;-74
2021/01/04 00:21:08;;;;;;;11.55;9.60;;;1.80;99.90;;;;;;5054093;28;20174;-74
2021/01/04 00:23:50;;;;;;;10.93;9.05;;;1.80;99.90;;;;;;5053632;28;20185;-74
2021/01/04 00:26:41;;;;;;;11.55;8.60;;;1.80;99.90;;;;;;5053860;28;20734;-74
2021/01/04 00:29:07;;;;;;;14.52;11.02;;;1.90;99.90;;;;;;5050480;28;20274;-74
2021/01/04 00:31:44;;;;;;;13.33;9.97;;;1.90;99.90;;;;;;5044386;28;20253;-74
2021/01/04 00:34:13;;;;;;;12.55;9.52;;;2.00;99.90;;;;;;5043731;28;20494;-73
2021/01/04 00:37:16;;;;;;;14.00;10.77;;;1.90;99.90;;;;;;5043072;28;20602;-74
2021/01/04 00:40:36;;;;;;;12.60;9.85;;;1.90;99.90;;;;;;5043479;28;20251;-74
2021/01/04 00:43:04;;;;;;;11.18;9.02;;;2.00;99.90;;;;;;5040384;28;20579;-74
2021/01/04 00:46:00;;;;;;;10.43;8.02;;;1.90;99.90;;;;;;5043794;28;20182;-74
2021/01/04 00:48:34;;;;;;;11.48;8.88;;;2.10;99.90;;;;;;5036898;28;21051;-74
2021/01/04 00:51:32;;;;;;;13.23;9.40;;;2.10;99.90;;;;;;5033791;28;20200;-74
2021/01/04 00:54:00;;;;;;;11.55;9.50;;;2.00;99.90;;;;;;5033216;28;20201;-74
2021/01/04 00:56:37;;;;;;;11.40;9.68;;;2.00;99.90;;;;;;5033513;28;20246;-74
2021/01/04 00:59:22;;;;;;;14.38;9.30;;;2.00;99.90;;;;;;5033734;28;20249;-74
2021/01/04 01:02:19;;;;;;;11.65;9.65;;;2.00;99.90;;;;;;5033566;28;20257;-74
2021/01/04 01:05:09;;;;;;;10.52;8.70;;;2.10;99.90;;;;;;5033141;28;20194;-75
2021/01/04 01:08:02;;;;;;;10.73;9.57;;;2.00;99.90;;;;;;5033396;28;20202;-73
2021/01/04 01:10:30;;;;;;;12.25;9.00;;;2.00;99.90;;;;;;5031782;28;20184;-74
2021/01/04 01:13:19;;;;;;;11.45;8.90;;;2.10;99.90;;;;;;5032864;28;20266;-74
2021/01/04 01:16:04;;;;;;;11.10;8.02;;;2.10;99.90;;;;;;5033088;28;20204;-74
2021/01/04 01:18:32;;;;;;;10.07;8.57;;;2.00;99.90;;;;;;5033070;28;20271;-73
2021/01/04 01:21:03;;;;;;;11.35;8.40;;;2.00;99.90;;;;;;5033226;28;20167;-74
2021/01/04 01:23:29;;;;;;;12.18;8.48;;;2.20;99.90;;;;;;5032856;28;20558;-74
2021/01/04 01:26:16;;;;;;;12.07;9.27;;;2.20;99.90;;;;;;5033211;28;20207;-75
2021/01/04 01:29:22;;;;;;;9.07;7.95;;;2.10;99.90;;;;;;5033067;28;20203;-74
2021/01/04 01:32:03;;;;;;;10.98;8.75;;;2.20;99.90;;;;;;5030876;28;20191;-74
2021/01/04 01:34:38;;;;;;;9.70;7.60;;;2.20;99.90;;;;;;5030099;28;20289;-74
2021/01/04 01:37:47;;;;;;;12.00;8.90;;;2.10;99.90;;;;;;5032259;28;20187;-75
2021/01/04 01:40:38;;;;;;;11.10;7.78;;;2.20;99.90;;;;;;5031744;28;20640;-73
2021/01/04 01:43:32;;;;;;;9.25;7.57;;;2.20;99.90;;;;;;5032844;28;20275;-74
2021/01/04 01:46:25;;;;;;;9.23;7.50;;;2.30;99.90;;;;;;5033256;28;20175;-74
2021/01/04 01:49:12;;;;;;;8.95;7.13;;;2.30;99.90;;;;;;5033194;28;20209;-74
2021/01/04 01:51:59;;;;;;;8.82;7.35;;;2.20;99.90;;;;;;5033155;28;20519;-74
2021/01/04 01:54:52;;;;;;;8.65;7.18;;;2.20;99.90;;;;;;5032569;28;20205;-73
2021/01/04 01:57:59;;;;;;;9.27;7.50;;;2.10;99.90;;;;;;5033048;28;20193;-75
2021/01/04 02:00:31;;;;;;;8.50;7.20;;;2.10;99.90;;;;;;5032506;28;20196;-73
2021/01/04 02:03:07;;;;;;;8.63;7.53;;;2.10;99.90;;;;;;5032404;28;20538;-74
2021/01/04 02:05:53;;;;;;;8.68;7.45;;;2.00;99.90;;;;;;5032812;28;20183;-74
2021/01/04 02:08:24;;;;;;;9.10;7.80;;;2.10;99.90;;;;;;5032735;28;20175;-74
2021/01/04 02:10:54;;;;;;;9.93;8.05;;;2.10;99.90;;;;;;5031393;28;20176;-74
2021/01/04 02:13:35;;;;;;;10.18;7.60;;;2.20;99.90;;;;;;5032404;28;20195;-74
2021/01/04 02:16:06;;;;;;;9.07;6.95;;;2.10;99.90;;;;;;5032637;28;20218;-75
2021/01/04 02:18:57;;;;;;;9.77;7.57;;;2.20;99.90;;;;;;5032415;28;20162;-74
2021/01/04 02:21:57;;;;;;;9.00;7.63;;;2.10;99.90;;;;;;5032713;28;20178;-74
2021/01/04 02:24:27;;;;;;;9.05;7.32;;;2.00;99.90;;;;;;5035973;28;20599;-74
2021/01/04 02:26:57;;;;;;;6.85;6.18;;;2.00;99.90;;;;;;5036091;28;20186;-74
2021/01/04 02:29:23;;;;;;;9.48;8.10;;;2.10;99.90;;;;;;5036038;28;20191;-74
2021/01/04 02:31:58;;;;;;;8.10;6.70;;;2.00;99.90;;;;;;5036410;28;20237;-74
2021/01/04 02:34:30;;;;;;;8.30;6.95;;;2.00;99.90;;;;;;5035956;28;20760;-74
2021/01/04 02:36:58;;;;;;;9.57;8.07;;;1.90;99.90;;;;;;5036115;28;20189;-74
2021/01/04 02:39:47;;;;;;;10.90;7.65;;;2.00;99.90;;;;;;5036159;28;20176;-74
2021/01/04 02:42:17;;;;;;;8.02;6.75;;;2.00;99.90;;;;;;5036221;28;20571;-74
2021/01/04 02:44:45;;;;;;;9.23;7.25;;;2.00;99.90;;;;;;5035653;28;20240;-74
2021/01/04 02:47:38;;;;;;;9.30;7.93;;;2.10;99.90;;;;;;5035856;28;20170;-73
2021/01/04 02:50:17;;;;;;;9.10;7.35;;;2.00;99.90;;;;;;5035893;28;20206;-74
2021/01/04 02:53:01;;;;;;;9.23;7.20;;;2.00;99.90;;;;;;5034543;28;20203;-74
2021/01/04 02:55:38;;;;;;;8.05;6.88;;;2.00;99.90;;;;;;5035663;28;20306;-74
2021/01/04 02:58:28;;;;;;;8.38;7.40;;;2.00;99.90;;;;;;5034516;28;20642;-73
2021/01/04 03:01:03;;;;;;;11.30;8.30;;;2.00;99.90;;;;;;5035518;28;20536;-75
2021/01/04 03:03:32;;;;;;;8.35;6.78;;;2.00;99.90;;;;;;5035192;28;20668;-74
2021/01/04 03:06:00;;;;;;;8.25;6.88;;;1.90;99.90;;;;;;5035566;28;20223;-76
2021/01/04 03:08:26;;;;;;;10.48;8.10;;;1.90;99.90;;;;;;5035505;28;20171;-73
2021/01/04 03:10:51;;;;;;;8.73;7.73;;;2.00;99.90;;;;;;5035334;28;20183;-76
2021/01/04 03:13:28;;;;;;;9.70;7.37;;;2.10;99.90;;;;;;5033595;28;20218;-74
2021/01/04 03:16:21;;;;;;;9.90;7.57;;;2.00;99.90;;;;;;5033983;28;20306;-74
2021/01/04 03:18:51;;;;;;;10.55;7.68;;;2.10;99.90;;;;;;5035126;28;20553;-74
2021/01/04 03:21:21;;;;;;;9.48;7.53;;;2.00;99.90;;;;;;5035044;28;20182;-74
2021/01/04 03:23:49;;;;;;;9.45;7.90;;;2.10;99.90;;;;;;5034992;28;20213;-74
2021/01/04 03:26:46;;;;;;;9.63;7.93;;;2.10;99.90;;;;;;5035367;28;20236;-74
2021/01/04 03:29:11;;;;;;;10.07;8.48;;;2.10;99.90;;;;;;5034785;28;20737;-74
2021/01/04 03:31:37;;;;;;;10.30;8.47;;;2.00;99.90;;;;;;5035063;28;20262;-74
2021/01/04 03:34:02;;;;;;;9.53;8.23;;;2.10;99.90;;;;;;5034624;28;20195;-74
2021/01/04 03:36:28;;;;;;;9.20;7.97;;;2.10;99.90;;;;;;5034901;28;20628;-74
2021/01/04 03:38:54;;;;;;;9.87;7.80;;;2.00;99.90;;;;;;5034963;28;20258;-73
2021/01/04 03:41:19;;;;;;;9.80;8.30;;;2.00;99.90;;;;;;5034711;28;20206;-74
2021/01/04 03:43:45;;;;;;;9.93;8.77;;;2.20;99.90;;;;;;5034351;28;20195;-74
2021/01/04 03:46:10;;;;;;;10.40;7.30;;;2.20;99.90;;;;;;5034751;28;20179;-74
2021/01/04 03:48:37;;;;;;;12.00;9.53;;;2.20;99.90;;;;;;5034828;28;20182;-74
2021/01/04 03:51:03;;;;;;;9.75;8.50;;;2.10;99.90;;;;;;5034776;28;20192;-74
2021/01/04 03:53:29;;;;;;;12.80;8.95;;;2.20;99.90;;;;;;5034044;28;20203;-74
2021/01/04 03:55:55;;;;;;;10.50;9.40;;;2.20;99.90;;;;;;5034593;28;20215;-74
2021/01/04 03:58:20;;;;;;;12.03;8.53;;;2.20;99.90;;;;;;5034654;28;20667;-74
2021/01/04 04:00:46;;;;;;;10.77;8.00;;;2.20;99.90;;;;;;5034547;28;20183;-74
2021/01/04 04:03:12;;;;;;;10.60;8.97;;;2.00;99.90;;;;;;5033916;28;20196;-73
2021/01/04 04:05:37;;;;;;;12.53;9.33;;;2.10;99.90;;;;;;5034282;28;20184;-73
2021/01/04 04:08:04;;;;;;;11.47;8.77;;;2.00;99.90;;;;;;5034283;28;20170;-74
2021/01/04 04:10:30;;;;;;;10.25;8.70;;;1.90;99.90;;;;;;5034194;28;20668;-74
2021/01/04 04:12:56;;;;;;;11.80;9.27;;;2.00;99.90;;;;;;5033772;28;20178;-74
2021/01/04 04:15:23;;;;;;;12.73;8.95;;;2.10;99.90;;;;;;5033821;28;20214;-74
2021/01/04 04:17:49;;;;;;;11.50;8.70;;;2.00;99.90;;;;;;5034060;28;20612;-73
2021/01/04 04:20:19;;;;;;;12.10;9.80;;;2.00;99.90;;;;;;5034089;28;20176;-74
2021/01/04 04:22:49;;;;;;;11.43;9.50;;;2.10;99.90;;;;;;5034199;28;20405;-74
2021/01/04 04:25:17;;;;;;;11.50;8.85;;;2.10;99.90;;;;;;5034088;28;20683;-74
2021/01/04 04:27:43;;;;;;;12.48;9.70;;;2.10;99.90;;;;;;5033911;28;20214;-74
2021/01/04 04:30:12;;;;;;;10.77;9.07;;;2.00;99.90;;;;;;5033871;28;20220;-74
2021/01/04 04:32:38;;;;;;;15.75;9.68;;;2.00;99.90;;;;;;5033943;28;20445;-74
2021/01/04 04:35:08;;;;;;;11.67;8.97;;;2.10;99.90;;;;;;5033652;28;20271;-74
2021/01/04 04:37:33;;;;;;;11.98;9.10;;;2.00;99.90;;;;;;5033986;28;20179;-74
2021/01/04 04:39:59;;;;;;;14.50;9.83;;;2.00;99.90;;;;;;5033999;28;20167;-74
2021/01/04 04:42:24;;;;;;;12.40;9.50;;;2.10;99.90;;;;;;5033891;28;20226;-75
2021/01/04 04:44:57;;;;;;;12.33;9.70;;;2.00;99.90;;;;;;5033093;28;20205;-74
2021/01/04 04:47:44;;;;;;;12.25;9.95;;;2.00;99.90;;;;;;5033802;28;20178;-74
2021/01/04 04:50:22;;;;;;;11.20;8.98;;;2.00;99.90;;;;;;5033713;28;20263;-73
2021/01/04 04:53:18;;;;;;;12.50;10.13;;;2.10;99.90;;;;;;5033427;28;20534;-75
2021/01/04 04:56:21;;;;;;;12.10;9.27;;;2.00;99.90;;;;;;5032342;28;20239;-74
2021/01/04 04:59:08;;;;;;;10.20;8.82;;;1.90;99.90;;;;;;5033217;28;20527;-74
2021/01/04 05:02:06;;;;;;;15.18;9.80;;;2.00;99.90;;;;;;5033555;28;20164;-74
2021/01/04 05:04:41;;;;;;;9.50;8.48;;;2.00;99.90;;;;;;5033145;28;20215;-74
2021/01/04 05:07:27;;;;;;;12.38;9.68;;;2.00;99.90;;;;;;5033340;28;20166;-74
2021/01/04 05:10:07;;;;;;;10.25;8.82;;;1.90;99.90;;;;;;5033100;28;20527;-74
2021/01/04 05:12:44;;;;;;;12.45;9.38;;;1.90;99.90;;;;;;5033372;28;20544;-74
2021/01/04 05:15:21;;;;;;;12.85;9.20;;;1.90;99.90;;;;;;5032784;28;20234;-74
2021/01/04 05:18:24;;;;;;;12.45;9.43;;;2.00;99.90;;;;;;5032862;28;20253;-74
2021/01/04 05:20:58;;;;;;;10.75;9.18;;;2.00;99.90;;;;;;5033183;28;20178;-74
2021/01/04 05:24:01;;;;;;;12.63;9.07;;;1.90;99.90;;;;;;5032565;28;20552;-74
2021/01/04 05:26:56;;;;;;;11.30;8.75;;;2.00;99.90;;;;;;5033127;28;20562;-74
2021/01/04 05:29:41;;;;;;;13.25;9.52;;;1.90;99.90;;;;;;5032027;28;20179;-73
2021/01/04 05:32:24;;;;;;;13.38;9.23;;;1.90;99.90;;;;;;5033077;28;20726;-74
2021/01/04 05:35:00;;;;;;;11.30;9.32;;;2.00;99.90;;;;;;5032540;28;20954;-74
2021/01/04 05:37:56;;;;;;;11.82;8.52;;;2.00;99.90;;;;;;5033244;28;20618;-74
2021/01/04 05:40:52;;;;;;;9.70;8.35;;;1.90;99.90;;;;;;5032957;28;20204;-74
2021/01/04 05:43:52;;;;;;;11.68;8.93;;;1.90;99.90;;;;;;5032632;28;20658;-74
2021/01/04 05:46:17;;;;;;;13.93;9.68;;;2.00;99.90;;;;;;5050970;28;20192;-74
2021/01/04 05:49:01;;;;;;;10.80;8.80;;;2.10;99.90;;;;;;5052929;28;20176;-74
2021/01/04 05:51:41;;;;;;;12.52;9.30;;;2.10;99.90;;;;;;5052889;28;20179;-74
2021/01/04 05:54:07;;;;;;;11.23;9.25;;;2.20;99.90;;;;;;5052628;28;20193;-74
2021/01/04 05:56:33;;;;;;;11.18;8.13;;;2.20;99.90;;;;;;5052699;28;20203;-74
2021/01/04 05:59:13;;;;;;;11.20;8.35;;;2.10;99.90;;;;;;5056113;28;20243;-74
2021/01/04 06:01:41;;;;;;;10.98;9.18;;;2.10;99.90;;;;;;5056715;28;20203;-73
2021/01/04 06:04:09;;;;;;;9.70;7.95;;;1.90;99.90;;;;;;5056220;28;20190;-74
2021/01/04 06:06:50;;;;;;;13.50;10.02;;;2.00;99.90;;;;;;5056474;28;20237;-74
2021/01/04 06:09:17;;;;;;;15.85;9.13;;;2.10;99.90;;;;;;5056488;28;20186;-74
2021/01/04 06:11:52;;;;;;;10.93;8.20;;;2.20;99.90;;;;;;5056457;28;20245;-74
2021/01/04 06:14:18;;;;;;;10.65;8.63;;;2.20;99.90;;;;;;5054637;28;20197;-74
2021/01/04 06:16:45;;;;;;;11.23;8.52;;;2.20;99.90;;;;;;5037801;28;20212;-74
2021/01/04 06:19:16;;;;;;;11.40;8.60;;;2.10;99.90;;;;;;5035598;28;20167;-74
2021/01/04 06:21:48;;;;;;;11.48;8.65;;;2.10;99.90;;;;;;5036334;28;20173;-74
2021/01/04 06:24:32;;;;;;;10.15;8.05;;;2.00;99.90;;;;;;5035679;28;20206;-74
2021/01/04 06:27:09;;;;;;;11.65;8.88;;;2.10;99.90;;;;;;5036263;28;20174;-74
2021/01/04 06:29:47;;;;;;;13.30;9.60;;;2.10;99.90;;;;;;5036362;28;20232;-74
2021/01/04 06:32:34;;;;;;;11.85;8.45;;;2.10;99.90;;;;;;5036135;28;20570;-74
2021/01/04 06:35:04;;;;;;;12.18;9.05;;;2.20;99.90;;;;;;5035586;28;20234;-74
2021/01/04 06:37:32;;;;;;;10.77;8.85;;;2.10;99.90;;;;;;5035904;28;20174;-74
2021/01/04 06:40:09;;;;;;;11.23;8.43;;;2.20;99.90;;;;;;5036209;28;20199;-74
2021/01/04 06:42:41;;;;;;;11.75;8.57;;;2.20;99.90;;;;;;5036114;28;20641;-74
2021/01/04 06:45:26;;;;;;;12.98;9.52;;;2.20;99.90;;;;;;5035808;28;20195;-73
2021/01/04 06:48:05;;;;;;;9.90;7.40;;;2.20;99.90;;;;;;5036069;28;20516;-73
2021/01/04 06:50:52;;;;;;;12.77;8.73;;;2.20;99.90;;;;;;5035997;28;20507;-74
2021/01/04 06:54:00;;;;;;;11.80;8.55;;;2.10;99.90;;;;;;5035598;28;20202;-74
2021/01/04 06:56:28;;;;;;;11.45;8.43;;;2.20;99.90;;;;;;5035620;28;20198;-73
2021/01/04 06:59:34;;;;;;;12.38;9.23;;;2.20;99.90;;;;;;5035513;28;20244;-73
2021/01/04 07:01:59;;;;;;;11.00;8.23;;;2.20;99.90;;;;;;5035528;28;20170;-74
2021/01/04 07:04:54;;;;;;;10.17;7.83;;;2.20;99.90;;;;;;5035107;28;20251;-74
2021/01/04 07:07:56;;;;;;;10.23;8.23;;;2.00;99.90;;;;;;5034150;28;20276;-74
2021/01/04 07:10:27;;;;;;;11.38;8.10;;;2.20;99.90;;;;;;5035345;28;20173;-73
2021/01/04 07:13:12;;;;;;;9.73;8.05;;;2.20;99.90;;;;;;5034842;28;20175;-75
2021/01/04 07:16:14;;;;;;;10.02;7.60;;;2.10;99.90;;;;;;5035154;28;20286;-74
2021/01/04 07:19:05;;;;;;;9.65;8.13;;;2.20;99.90;;;;;;5041499;28;20588;-75
2021/01/04 07:21:46;;;;;;;10.80;8.75;;;2.10;99.90;;;;;;5035264;28;20166;-74
2021/01/04 07:24:23;;;;;;;9.82;7.65;;;2.00;99.90;;;;;;5034748;28;20281;-74
2021/01/04 07:27:07;;;;;;;9.55;7.38;;;2.00;99.90;;;;;;5035003;28;20170;-75
2021/01/04 07:29:47;;;;;;;10.75;8.13;;;2.10;99.90;;;;;;5035121;28;20189;-74
2021/01/04 07:32:24;;;;;;;13.90;8.50;;;2.20;99.90;;;;;;5035254;28;20176;-74
2021/01/04 07:34:54;;;;;;;10.75;8.25;;;2.20;99.90;;;;;;5034681;28;20200;-74
2021/01/04 07:37:38;;;;;;;11.27;8.68;;;2.10;99.90;;;;;;5034957;28;20197;-74
2021/01/04 07:40:25;;;;;;;13.65;9.32;;;2.10;99.90;;;;;;5035100;28;20171;-73
2021/01/04 07:43:28;;;;;;;12.00;8.25;;;2.10;99.90;;;;;;5034573;28;20190;-74
2021/01/04 07:46:21;;;;;;;10.90;8.45;;;2.20;99.90;;;;;;5034790;28;20173;-74
2021/01/04 07:49:17;;;;;;;11.45;8.52;;;2.30;99.90;;;;;;5034783;28;20170;-74
2021/01/04 07:52:12;;;;;;;12.73;9.38;;;2.20;99.90;;;;;;5034782;28;20635;-74
2021/01/04 07:55:15;;;;;;;12.65;9.40;;;2.20;99.90;;;;;;5034262;28;20198;-73
2021/01/04 07:58:17;;;;;;;15.60;8.30;;;2.10;99.90;;;;;;5052544;28;20251;-74
2021/01/04 08:01:33;;;;;;;12.88;8.48;;;2.20;99.90;;;;;;5034643;28;20168;-74
2021/01/04 08:04:27;;;;;;;10.82;8.60;;;2.20;99.90;;;;;;5034111;28;20190;-73
2021/01/04 08:07:14;;;;;;;11.65;9.27;;;2.20;99.90;;;;;;5034394;28;20187;-73
2021/01/04 08:09:45;;;;;;;12.77;8.63;;;2.20;99.90;;;;;;5034328;28;20198;-73
2021/01/04 08:12:20;;;;;;;12.38;9.02;;;2.20;99.90;;;;;;5034330;28;20533;-73
2021/01/04 08:14:52;;;;;;;10.85;8.50;;;2.30;99.90;;;;;;5033625;28;20205;-73
2021/01/04 08:17:36;;;;;;;15.48;9.40;;;2.30;99.90;;;;;;5033989;28;20167;-73
2021/01/04 08:20:06;;;;;;;13.40;9.05;;;2.40;99.90;;;;;;5033404;28;20183;-73
2021/01/04 08:22:50;;;;;;;13.10;10.30;;;2.40;99.90;;;;;;5033916;28;20179;-73
2021/01/04 08:25:35;;;;;;;13.43;9.57;;;2.40;99.90;;;;;;5033863;28;20199;-74
2021/01/04 08:28:37;;;;;;;18.35;10.95;;;2.40;99.90;;;;;;5034081;28;20556;-74
2021/01/04 08:31:13;;;;;;;12.30;9.95;;;2.50;99.90;;;;;;5033849;28;20182;-74
2021/01/04 08:33:49;;;;;;;11.32;9.57;;;2.40;99.90;;;;;;5033530;28;20534;-74
2021/01/04 08:36:21;;;;;;;12.63;10.23;;;2.40;99.90;;;;;;5034371;28;20741;-74
2021/01/04 08:38:47;;;;;;;12.98;9.45;;;2.30;99.90;;;;;;5033909;28;20656;-75
2021/01/04 08:41:15;;;;;;;10.60;9.20;;;2.40;99.90;;;;;;5033684;28;20176;-74
2021/01/04 08:43:44;;;;;;;13.85;10.85;;;2.40;99.90;;;;;;5033071;28;20434;-74
2021/01/04 08:46:17;;;;;;;14.32;9.95;;;2.40;99.90;;;;;;5033548;28;20179;-74
2021/01/04 08:48:44;;;;;;;13.15;10.23;;;2.50;99.90;;;;;;5033696;28;20636;-74
2021/01/04 08:51:24;;;;;;;13.70;11.15;;;2.40;99.90;;;;;;5033624;28;20187;-73
2021/01/04 08:54:00;;;;;;;11.93;9.13;;;2.50;99.90;;;;;;5033009;28;20199;-74
2021/01/04 08:56:33;;;;;;;12.43;10.35;;;2.60;99.90;;;;;;5033604;28;20200;-74
2021/01/04 08:59:20;;;;;;;13.05;9.95;;;2.60;99.90;;;;;;5032432;28;20185;-74
2021/01/04 09:01:55;;;;;;;12.65;9.55;;;2.60;99.90;;;;;;5033532;28;20187;-74
2021/01/04 09:04:36;;;;;;;13.55;10.60;;;2.50;99.90;;;;;;5031964;28;20205;-74
2021/01/04 09:07:13;;;;;;;14.02;10.95;;;2.50;99.90;;;;;;5033520;28;20180;-74
2021/01/04 09:10:03;;;;;;;14.30;10.15;;;2.50;99.90;;;;;;5033432;28;20183;-74
2021/01/04 09:12:36;;;;;;;15.02;11.73;;;2.60;99.90;;;;;;5033459;28;20170;-74
2021/01/04 09:15:19;;;;;;;13.50;10.50;;;2.60;99.90;;;;;;5032660;28;20216;-73
2021/01/04 09:17:49;;;;;;;15.65;11.25;;;2.60;99.90;;;;;;5031911;28;20575;-74
2021/01/04 09:20:18;;;;;;;15.60;10.70;;;2.70;99.90;;;;;;5033143;28;20215;-75
2021/01/04 09:22:45;;;;;;;13.00;10.38;;;2.80;99.90;;;;;;5033143;28;20171;-75
2021/01/04 09:25:26;;;;;;;13.85;11.07;;;2.80;99.90;;;;;;5032917;28;20677;-74
2021/01/04 09:27:53;;;;;;;14.15;9.93;;;2.90;99.90;;;;;;5031750;28;20531;-75
2021/01/04 09:30:25;;;;;;;15.77;11.57;;;2.90;99.90;;;;;;5031758;28;20263;-73
2021/01/04 09:33:12;;;;;;;14.98;11.48;;;2.90;99.90;;;;;;5036214;28;20255;-73
2021/01/04 09:35:37;;;;;;;14.25;10.65;;;2.90;99.90;;;;;;5037442;28;20202;-73
2021/01/04 09:38:14;;;;;;;16.17;11.90;;;2.80;99.90;;;;;;5037226;28;20179;-73
2021/01/04 09:40:39;;;;;;;14.35;11.90;;;3.00;99.90;;;;;;5037053;28;21015;-72
2021/01/04 09:43:11;;;;;;;15.30;12.73;;;3.00;99.90;;;;;;5036567;28;20183;-74
2021/01/04 09:45:39;;;;;;;16.20;12.73;;;2.90;99.90;;;;;;5037064;28;20447;-73
2021/01/04 09:48:17;;;;;;;13.55;9.95;;;2.90;99.90;;;;;;5037191;28;20180;-73
2021/01/04 09:50:57;;;;;;;13.50;11.10;;;2.90;99.90;;;;;;5037014;28;20194;-72
2021/01/04 09:53:30;;;;;;;14.88;11.07;;;2.80;99.90;;;;;;5036373;28;20200;-73
2021/01/04 09:56:07;;;;;;;17.27;11.70;;;2.90;99.90;;;;;;5036565;28;20223;-74
2021/01/04 09:58:33;;;;;;;15.40;10.65;;;2.80;99.90;;;;;;5036691;28;20210;-73
2021/01/04 10:01:09;;;;;;;17.80;10.60;;;2.90;99.90;;;;;;5036971;28;20196;-73
2021/01/04 10:03:35;;;;;;;13.75;10.75;;;2.90;99.90;;;;;;5036236;28;20274;-73
2021/01/04 10:06:08;;;;;;;14.65;10.52;;;2.90;99.90;;;;;;5036789;28;20211;-73
2021/01/04 10:08:36;;;;;;;15.52;11.77;;;3.00;99.90;;;;;;5036572;28;20187;-72
2021/01/04 10:11:05;;;;;;;14.50;11.27;;;3.00;99.90;;;;;;5036532;28;20199;-73
2021/01/04 10:13:38;;;;;;;15.65;11.80;;;3.00;99.90;;;;;;5036203;28;20198;-74
2021/01/04 10:16:09;;;;;;;13.95;10.82;;;3.10;99.90;;;;;;5036227;28;20212;-74
2021/01/04 10:18:41;;;;;;;14.65;11.90;;;3.00;99.90;;;;;;5036141;28;20173;-72
2021/01/04 10:21:15;;;;;;;14.48;10.63;;;2.90;99.90;;;;;;5036035;28;20181;-73
2021/01/04 10:24:17;;;;;;;12.68;10.38;;;3.00;99.90;;;;;;5035815;28;20207;-73
2021/01/04 10:26:45;;;;;;;13.90;10.02;;;2.90;99.90;;;;;;5034933;28;20188;-73
2021/01/04 10:29:15;;;;;;;14.93;10.05;;;3.00;99.90;;;;;;5036198;28;20530;-73
2021/01/04 10:31:41;;;;;;;17.23;11.48;;;3.00;99.90;;;;;;5036224;28;20580;-73
2021/01/04 10:34:10;;;;;;;17.80;12.02;;;3.00;99.90;;;;;;5035720;28;20223;-73
2021/01/04 10:36:38;;;;;;;17.38;11.38;;;3.00;99.90;;;;;;5035994;28;20216;-73
2021/01/04 10:39:29;;;;;;;16.15;11.00;;;3.00;99.90;;;;;;5036079;28;20173;-73
2021/01/04 10:42:05;;;;;;;13.80;11.75;;;3.10;99.90;;;;;;5036174;28;20174;-72
2021/01/04 10:44:31;;;;;;;16.63;10.35;;;3.20;99.90;;;;;;5034677;28;20605;-74
2021/01/04 10:47:09;;;;;;;14.83;11.57;;;3.20;99.90;;;;;;5035739;28;20177;-73
2021/01/04 10:49:35;;;;;;;13.35;10.60;;;3.10;99.90;;;;;;5035911;28;20867;-73
2021/01/04 10:52:02;;;;;;;12.25;9.32;;;3.20;99.90;;;;;;5035993;28;20179;-73
2021/01/04 10:54:40;;;;;;;11.57;9.00;;;3.00;99.90;;;;;;5035093;28;20196;-72
2021/01/04 10:57:18;;;;;;;13.75;10.52;;;3.10;99.90;;;;;;5035670;28;20205;-72
2021/01/04 10:59:57;;;;;;;13.23;10.57;;;3.10;99.90;;;;;;5035788;28;20218;-73
2021/01/04 11:02:23;;;;;;;12.82;10.23;;;3.10;99.90;;;;;;5035769;28;20164;-74
2021/01/04 11:04:55;;;;;;;12.53;10.63;;;3.10;99.90;;;;;;5035105;28;20223;-73
2021/01/04 11:07:30;;;;;;;15.02;11.35;;;3.00;99.90;;;;;;5035473;28;20170;-73
2021/01/04 11:09:56;;;;;;;14.88;10.55;;;3.20;99.90;;;;;;5035376;28;20180;-73
2021/01/04 11:12:27;;;;;;;15.10;10.47;;;3.10;99.90;;;;;;5035296;28;20652;-73
2021/01/04 11:15:02;;;;;;;11.70;10.40;;;3.10;99.90;;;;;;5034605;28;20451;-73
2021/01/04 11:17:36;;;;;;;14.65;10.93;;;3.20;99.90;;;;;;5035163;28;20572;-73
2021/01/04 11:20:16;;;;;;;12.02;10.32;;;3.00;99.90;;;;;;5035246;28;20251;-73
2021/01/04 11:22:42;;;;;;;13.15;10.70;;;3.00;99.90;;;;;;5035010;28;20177;-73
2021/01/04 11:25:10;;;;;;;18.90;11.05;;;3.00;99.90;;;;;;5034728;28;20199;-73
2021/01/04 11:27:35;;;;;;;14.57;11.10;;;3.00;99.90;;;;;;5035161;28;20176;-74
2021/01/04 11:30:01;;;;;;;14.27;12.10;;;3.20;99.90;;;;;;5035055;28;20261;-73
2021/01/04 11:32:27;;;;;;;12.13;10.00;;;3.30;99.90;;;;;;5034904;28;20235;-72
2021/01/04 11:34:59;;;;;;;16.43;11.10;;;3.10;99.90;;;;;;5034315;28;20201;-73
2021/01/04 11:37:25;;;;;;;12.45;10.55;;;3.10;99.90;;;;;;5034776;28;20165;-72
2021/01/04 11:39:51;;;;;;;11.63;9.70;;;3.00;99.90;;;;;;5034730;28;20247;-73
2021/01/04 11:42:17;;;;;;;13.63;10.07;;;3.10;99.90;;;;;;5035115;28;20799;-73
2021/01/04 11:44:43;;;;;;;15.10;9.07;;;3.00;99.90;;;;;;5034485;28;20196;-73
2021/01/04 11:47:09;;;;;;;13.57;10.47;;;3.00;99.90;;;;;;5034780;28;20173;-74
2021/01/04 11:49:35;;;;;;;13.70;11.00;;;3.00;99.90;;;;;;5034050;28;20177;-74
2021/01/04 11:52:01;;;;;;;13.10;10.75;;;3.00;99.90;;;;;;5033116;28;20183;-74
2021/01/04 11:54:27;;;;;;;14.87;12.00;;;3.00;99.90;;;;;;5030232;28;20204;-73
2021/01/04 11:56:52;;;;;;;13.33;10.10;;;2.90;99.90;;;;;;5031820;28;20200;-73
2021/01/04 11:59:19;;;;;;;14.43;10.33;;;3.00;99.90;;;;;;5033051;28;20185;-74
2021/01/04 12:01:44;;;;;;;13.88;10.82;;;3.00;99.90;;;;;;5031784;28;20231;-73
2021/01/04 12:04:10;;;;;;;13.70;12.30;;;3.10;99.90;;;;;;5032894;28;20399;-73
2021/01/04 12:06:36;;;;;;;13.63;12.05;;;3.10;99.90;;;;;;5035823;28;20423;-74
2021/01/04 12:09:06;;;;;;;12.17;10.77;;;3.10;99.90;;;;;;5049713;28;20188;-73
2021/01/04 12:11:38;;;;;;;12.35;9.75;;;3.20;99.90;;;;;;5051816;28;20234;-73
2021/01/04 12:14:06;;;;;;;11.38;9.80;;;3.30;99.90;;;;;;5052064;28;20196;-73
2021/01/04 12:16:32;;;;;;;12.52;10.77;;;3.30;99.90;;;;;;5051497;28;20216;-73
2021/01/04 12:18:58;;;;;;;12.70;10.60;;;3.30;99.90;;;;;;5052163;28;20546;-73
2021/01/04 12:21:24;;;;;;;13.07;10.50;;;3.30;99.90;;;;;;5051666;28;20175;-74
2021/01/04 12:23:50;;;;;;;11.13;9.88;;;3.30;99.90;;;;;;5051425;28;20189;-73
2021/01/04 12:26:17;;;;;;;13.15;11.10;;;3.30;99.90;;;;;;5051709;28;20189;-73
2021/01/04 12:28:43;;;;;;;12.40;10.27;;;3.40;99.90;;;;;;5051883;28;20203;-73
2021/01/04 12:31:08;;;;;;;15.47;10.63;;;3.40;99.90;;;;;;5050819;28;20183;-73
2021/01/04 12:33:35;;;;;;;12.73;10.77;;;3.30;99.90;;;;;;5051513;28;20454;-74
2021/01/04 12:36:01;;;;;;;13.93;11.02;;;3.20;99.90;;;;;;5051742;28;20480;-72
2021/01/04 12:38:27;;;;;;;12.55;10.43;;;3.20;99.90;;;;;;5051089;28;20174;-73
2021/01/04 12:40:52;;;;;;;12.67;9.27;;;3.30;99.90;;;;;;5050435;28;20189;-73
2021/01/04 12:43:18;;;;;;;11.37;9.60;;;3.30;99.90;;;;;;5051632;28;20527;-74
2021/01/04 12:45:44;;;;;;;11.80;10.20;;;3.30;99.90;;;;;;5050568;28;20183;-73
2021/01/04 12:48:10;;;;;;;13.40;10.00;;;3.40;99.90;;;;;;5051226;28;20215;-75
2021/01/04 12:50:35;;;;;;;13.47;10.43;;;3.50;99.90;;;;;;5051032;28;20442;-73
2021/01/04 12:53:01;;;;;;;14.63;9.97;;;3.40;99.90;;;;;;5050903;28;20477;-73
2021/01/04 12:55:27;;;;;;;10.70;8.83;;;3.20;99.90;;;;;;5050165;28;20291;-74
2021/01/04 12:57:52;;;;;;;12.37;8.60;;;3.20;99.90;;;;;;5051994;28;20203;-73
2021/01/04 13:00:23;;;;;;;9.30;8.40;;;3.20;99.90;;;;;;5050232;28;20272;-73
2021/01/04 13:02:53;;;;;;;14.00;8.60;;;3.20;99.90;;;;;;5051296;28;20188;-72
2021/01/04 13:05:19;;;;;;;11.63;8.93;;;3.20;99.90;;;;;;5048788;28;20188;-73
2021/01/04 13:07:45;;;;;;;12.05;8.77;;;3.20;99.90;;;;;;5037450;28;20200;-74
2021/01/04 13:10:11;;;;;;;12.13;9.25;;;3.20;99.90;;;;;;5030365;28;20216;-73
2021/01/04 13:12:38;;;;;;;10.70;9.00;;;3.10;99.90;;;;;;5031328;28;20214;-73
2021/01/04 13:15:08;;;;;;;9.80;8.63;;;3.00;99.90;;;;;;5029435;28;20481;-73
2021/01/04 13:17:35;;;;;;;12.52;9.02;;;2.90;99.90;;;;;;5031423;28;20235;-73
2021/01/04 13:20:02;;;;;;;10.75;8.55;;;3.00;99.90;;;;;;5030414;28;20177;-73
2021/01/04 13:22:29;;;;;;;11.75;9.02;;;3.00;99.90;;;;;;5030282;28;20297;-73
2021/01/04 13:24:56;;;;;;;12.25;10.15;;;3.10;99.90;;;;;;5030237;28;20205;-73
2021/01/04 13:27:22;;;;;;;10.90;8.57;;;3.00;99.90;;;;;;5031030;28;20192;-73
2021/01/04 13:29:48;;;;;;;12.32;9.77;;;2.90;99.90;;;;;;5030399;28;20608;-72
2021/01/04 13:32:13;;;;;;;10.57;8.03;;;2.90;99.90;;;;;;5029585;28;20209;-73